Time;durP1;ratioP1;P1;durP2;ratioP2;P2;SDS_P1;SDS_P2;PMS_P1;PMS_P2;Temp;Humidity;BMP_temperature;BMP_pressure;BME280_temperature;BME280_humidity;BME280_pressure;Samples;Min_cycle;Max_cycle;Signal;HPM_P1;HPM_P2
2023/11/16 00:01:49;;;;;;;0.30;0.30;;;;;;;9.23;92.07;99634.56;5033585;28;20046;-71
2023/11/16 00:04:18;;;;;;;0.40;0.40;;;;;;;9.26;92.57;99644.72;5033652;28;20065;-71
2023/11/16 00:06:48;;;;;;;0.63;0.63;;;;;;;9.22;92.04;99648.13;5033377;28;20461;-70
2023/11/16 00:09:18;;;;;;;0.50;0.50;;;;;;;8.72;92.55;99550.31;5033248;28;20124;-73
2023/11/16 00:11:48;;;;;;;0.98;0.98;;;;;;;9.21;92.42;99638.75;5033518;28;20068;-70
2023/11/16 00:14:18;;;;;;;0.32;0.32;;;;;;;9.14;92.42;99620.94;5033183;28;20132;-72
2023/11/16 00:16:46;;;;;;;0.40;0.40;;;;;;;9.22;92.87;99626.88;5033459;28;20030;-72
2023/11/16 00:19:18;;;;;;;0.40;0.40;;;;;;;9.19;92.56;99635.38;5036769;28;20124;-71
2023/11/16 00:21:48;;;;;;;0.30;0.30;;;;;;;9.18;92.70;99630.28;5037514;28;20072;-69
2023/11/16 00:24:18;;;;;;;0.30;0.30;;;;;;;9.09;92.52;99626.00;5037071;28;20132;-70
2023/11/16 00:26:50;;;;;;;0.40;0.40;;;;;;;9.14;92.38;99624.31;5037227;28;20056;-71
2023/11/16 00:29:19;;;;;;;1.30;1.00;;;;;;;8.88;91.72;99580.06;5037276;28;20083;-69
2023/11/16 00:31:47;;;;;;;0.70;0.60;;;;;;;9.22;92.30;99635.38;5036987;28;20041;-72
2023/11/16 00:34:16;;;;;;;0.70;0.70;;;;;;;9.15;91.70;99636.22;5036995;28;20049;-70
2023/11/16 00:36:45;;;;;;;0.63;0.63;;;;;;;9.18;91.43;99636.22;5037424;28;20041;-69
2023/11/16 00:39:15;;;;;;;0.40;0.40;;;;;;;9.19;91.89;99647.28;5035936;28;20042;-71
2023/11/16 00:41:48;;;;;;;0.60;0.60;;;;;;;9.16;91.76;99653.19;5037038;28;20048;-72
2023/11/16 00:44:19;;;;;;;1.13;1.03;;;;;;;9.16;91.52;99653.19;5035527;28;20049;-72
2023/11/16 00:46:48;;;;;;;0.85;0.80;;;;;;;9.19;91.22;99658.28;5035571;28;20070;-71
2023/11/16 00:49:18;;;;;;;0.35;0.35;;;;;;;9.13;91.19;99642.13;5035505;28;20055;-73
2023/11/16 00:51:47;;;;;;;0.50;0.50;;;;;;;9.22;91.43;99658.31;5036520;28;20399;-72
2023/11/16 00:54:17;;;;;;;0.80;0.75;;;;;;;9.23;91.14;99660.00;5035700;28;20045;-73
2023/11/16 00:56:46;;;;;;;0.35;0.35;;;;;;;9.20;91.29;99654.03;5035685;28;20120;-71
2023/11/16 00:59:15;;;;;;;0.30;0.30;;;;;;;9.28;91.53;99663.44;5035553;28;20042;-74
2023/11/16 01:01:45;;;;;;;0.30;0.30;;;;;;;9.19;91.17;99643.00;5035727;28;20125;-70
2023/11/16 01:04:14;;;;;;;0.40;0.40;;;;;;;9.26;90.97;99649.00;5035340;28;20050;-72
2023/11/16 01:06:44;;;;;;;0.45;0.45;;;;;;;9.24;91.58;99656.59;5036659;28;20033;-72
2023/11/16 01:09:13;;;;;;;0.50;0.50;;;;;;;9.25;91.71;99658.31;5036280;28;20048;-72
2023/11/16 01:11:43;;;;;;;0.47;0.47;;;;;;;9.18;91.69;99641.31;5035063;28;20464;-72
2023/11/16 01:14:16;;;;;;;1.25;1.15;;;;;;;9.26;91.73;99644.72;5036444;28;20056;-73
2023/11/16 01:16:45;;;;;;;0.60;0.57;;;;;;;9.22;91.66;99655.75;5036425;28;20081;-72
2023/11/16 01:19:16;;;;;;;0.77;0.77;;;;;;;9.24;91.69;99656.59;5035179;28;20037;-71
2023/11/16 01:21:54;;;;;;;0.50;0.50;;;;;;;9.21;91.06;99653.22;5035283;28;20057;-72
2023/11/16 01:24:23;;;;;;;0.40;0.40;;;;;;;9.19;91.40;99653.19;5034875;28;20045;-73
2023/11/16 01:26:55;;;;;;;0.30;0.30;;;;;;;9.13;91.22;99658.25;5036309;28;20128;-73
2023/11/16 01:29:24;;;;;;;0.65;0.65;;;;;;;9.08;90.63;99652.31;5035203;28;20053;-73
2023/11/16 01:31:54;;;;;;;0.20;0.20;;;;;;;9.09;90.32;99656.56;5036357;28;20458;-72
2023/11/16 01:34:24;;;;;;;0.35;0.35;;;;;;;8.82;90.26;99620.78;5035883;28;20148;-73
2023/11/16 01:36:53;;;;;;;0.28;0.28;;;;;;;9.07;90.34;99663.31;5035794;28;20476;-74
2023/11/16 01:39:22;;;;;;;0.73;0.73;;;;;;;9.05;90.14;99672.66;5051166;28;20033;-71
2023/11/16 01:41:52;;;;;;;0.70;0.70;;;;;;;9.04;89.86;99676.06;5035809;28;20088;-72
2023/11/16 01:44:22;;;;;;;0.40;0.40;;;;;;;9.05;89.64;99680.28;5034586;28;20045;-71
2023/11/16 01:46:52;;;;;;;0.30;0.30;;;;;;;9.02;89.30;99680.25;5035436;28;20128;-73
2023/11/16 01:49:20;;;;;;;;;;;;;;;9.01;89.15;99668.38;5035863;28;20044;-72
2023/11/16 01:51:55;;;;;;;0.20;0.20;;;;;;;9.01;89.27;99678.56;5034416;28;20189;-72
2023/11/16 01:54:25;;;;;;;0.38;0.38;;;;;;;8.97;88.62;99671.78;5035683;28;20045;-70
2023/11/16 01:56:55;;;;;;;;;;;;;;;9.01;88.50;99683.66;5035753;28;20049;-71
2023/11/16 01:59:25;;;;;;;0.35;0.35;;;;;;;8.87;89.02;99664.91;5035344;28;19920;-72
2023/11/16 02:01:54;;;;;;;0.20;0.20;;;;;;;9.00;88.41;99691.31;5034155;28;20399;-71
2023/11/16 02:04:23;;;;;;;;;;;;;;;8.98;88.20;99696.38;5035738;28;20476;-72
2023/11/16 02:06:54;;;;;;;1.97;1.50;;;;;;;8.91;88.34;99687.00;5034118;28;19928;-70
2023/11/16 02:09:22;;;;;;;0.60;0.60;;;;;;;8.91;88.72;99699.72;5035649;28;20050;-71
2023/11/16 02:11:51;;;;;;;0.55;0.55;;;;;;;8.87;88.42;99705.63;5035441;28;20049;-70
2023/11/16 02:14:21;;;;;;;0.47;0.45;;;;;;;8.86;87.88;99703.06;5035456;28;20053;-74
2023/11/16 02:16:50;;;;;;;0.32;0.30;;;;;;;8.86;88.32;99709.00;5035202;28;20123;-70
2023/11/16 02:19:30;;;;;;;4.80;1.02;;;;;;;8.85;88.55;99702.25;5033958;28;20041;-71
2023/11/16 02:22:00;;;;;;;0.22;0.22;;;;;;;8.86;88.20;99709.00;5033772;28;20060;-72
2023/11/16 02:24:33;;;;;;;0.40;0.40;;;;;;;8.82;87.87;99707.31;5035370;28;20060;-72
2023/11/16 02:27:03;;;;;;;0.30;0.30;;;;;;;8.79;88.11;99707.28;5034960;28;20120;-72
2023/11/16 02:29:32;;;;;;;0.43;0.43;;;;;;;8.75;88.48;99708.09;5033576;28;20496;-71
2023/11/16 02:32:00;;;;;;;0.40;0.40;;;;;;;8.74;87.76;99706.38;5033567;28;20041;-69
2023/11/16 02:34:30;;;;;;;0.80;0.77;;;;;;;8.70;87.81;99707.22;5034794;28;20187;-72
2023/11/16 02:36:59;;;;;;;0.50;0.50;;;;;;;8.69;87.99;99710.59;5033938;28;20495;-72
2023/11/16 02:39:28;;;;;;;0.50;0.50;;;;;;;8.67;87.44;99714.81;5033322;28;20041;-72
2023/11/16 02:41:59;;;;;;;0.90;0.90;;;;;;;8.66;87.80;99710.59;5033461;28;20107;-71
2023/11/16 02:44:30;;;;;;;0.50;0.50;;;;;;;8.66;87.87;99720.75;5034556;28;20080;-70
2023/11/16 02:46:59;;;;;;;0.32;0.32;;;;;;;8.62;87.27;99724.97;5033670;28;20052;-70
2023/11/16 02:49:28;;;;;;;;;;;;;;;8.59;88.03;99729.19;5034089;28;20462;-71
2023/11/16 02:51:58;;;;;;;0.20;0.20;;;;;;;8.57;87.19;99730.84;5033236;28;19921;-71
2023/11/16 02:54:27;;;;;;;0.30;0.30;;;;;;;8.50;87.57;99718.91;5034291;28;20562;-71
2023/11/16 02:56:58;;;;;;;0.30;0.30;;;;;;;8.55;88.09;99728.31;5034281;28;20072;-71
2023/11/16 02:59:26;;;;;;;0.20;0.20;;;;;;;8.51;87.84;99730.81;5034077;28;20049;-71
2023/11/16 03:01:58;;;;;;;0.40;0.40;;;;;;;8.40;87.67;99722.22;5032974;28;20077;-70
2023/11/16 03:04:27;;;;;;;0.30;0.30;;;;;;;8.41;87.86;99718.84;5034245;28;20050;-70
2023/11/16 03:06:56;;;;;;;0.40;0.40;;;;;;;8.40;88.03;99729.84;5034167;28;20052;-71
2023/11/16 03:09:24;;;;;;;0.50;0.50;;;;;;;8.34;88.01;99719.63;5034238;28;20044;-70
2023/11/16 03:11:53;;;;;;;0.30;0.30;;;;;;;8.34;87.39;99742.53;5032856;28;20136;-72
2023/11/16 03:14:23;;;;;;;0.35;0.35;;;;;;;8.35;88.29;99739.16;5033884;28;20048;-70
2023/11/16 03:16:55;;;;;;;0.38;0.38;;;;;;;8.35;87.63;99739.16;5034301;28;20065;-70
2023/11/16 03:19:25;;;;;;;0.40;0.40;;;;;;;8.35;88.17;99744.25;5034123;28;20487;-71
2023/11/16 03:21:54;;;;;;;0.40;0.40;;;;;;;8.37;88.14;99738.34;5032529;28;20042;-72
2023/11/16 03:24:24;;;;;;;1.08;0.82;;;;;;;8.39;88.32;99740.88;5032611;28;20275;-71
2023/11/16 03:26:53;;;;;;;0.40;0.40;;;;;;;8.39;87.66;99744.28;5032675;28;20510;-70
2023/11/16 03:29:25;;;;;;;0.30;0.30;;;;;;;8.39;87.85;99745.97;5033897;28;20431;-70
2023/11/16 03:31:54;;;;;;;0.30;0.30;;;;;;;8.34;87.90;99747.59;5033717;28;20045;-71
2023/11/16 03:34:23;;;;;;;0.40;0.40;;;;;;;8.40;87.80;99755.28;5033735;28;20038;-71
2023/11/16 03:36:52;;;;;;;0.43;0.43;;;;;;;8.39;88.30;99766.31;5032496;28;20495;-71
2023/11/16 03:39:20;;;;;;;0.40;0.40;;;;;;;8.41;87.53;99764.63;5032404;28;20037;-71
2023/11/16 03:41:49;;;;;;;0.20;0.20;;;;;;;8.39;87.76;99757.00;5032554;28;20447;-71
2023/11/16 03:44:18;;;;;;;0.82;0.70;;;;;;;8.38;87.17;99756.97;5033558;28;20041;-72
2023/11/16 03:46:48;;;;;;;0.30;0.30;;;;;;;8.35;87.19;99760.31;5033527;28;20037;-72
2023/11/16 03:49:17;;;;;;;0.60;0.60;;;;;;;8.39;87.85;99758.69;5033571;28;20048;-71
2023/11/16 03:51:46;;;;;;;0.30;0.30;;;;;;;8.38;87.30;99754.41;5031942;28;20060;-70
2023/11/16 03:54:15;;;;;;;0.43;0.43;;;;;;;8.38;87.73;99754.41;5033188;28;20045;-73
2023/11/16 03:56:45;;;;;;;0.30;0.30;;;;;;;8.37;87.89;99758.69;5033429;28;20132;-73
2023/11/16 03:59:14;;;;;;;1.60;0.80;;;;;;;8.38;87.31;99751.88;5033442;28;20407;-73
2023/11/16 04:01:44;;;;;;;0.40;0.40;;;;;;;8.35;86.91;99764.59;5033223;28;20275;-70
2023/11/16 04:04:14;;;;;;;0.30;0.30;;;;;;;8.28;87.91;99757.75;5033340;28;20749;-71
2023/11/16 04:06:43;;;;;;;0.32;0.32;;;;;;;8.23;86.64;99749.19;5033582;28;20041;-72
2023/11/16 04:09:12;;;;;;;0.55;0.55;;;;;;;8.25;87.57;99747.50;5033300;28;20140;-72
2023/11/16 04:11:41;;;;;;;0.45;0.40;;;;;;;8.16;87.20;99742.34;5032285;28;20200;-72
2023/11/16 04:14:11;;;;;;;0.30;0.30;;;;;;;8.13;87.19;99754.16;5033244;28;20045;-72
2023/11/16 04:16:39;;;;;;;0.20;0.20;;;;;;;8.02;87.12;99750.66;5033544;28;20046;-70
2023/11/16 04:19:09;;;;;;;0.53;0.53;;;;;;;8.00;87.37;99762.50;5032317;28;20046;-73
2023/11/16 04:21:43;;;;;;;0.20;0.20;;;;;;;7.80;87.21;99752.94;5031902;28;20408;-73
2023/11/16 04:24:13;;;;;;;0.22;0.22;;;;;;;7.84;87.53;99765.72;5033441;28;20120;-71
2023/11/16 04:26:42;;;;;;;0.20;0.20;;;;;;;7.79;87.47;99774.09;5033481;28;20045;-72
2023/11/16 04:29:11;;;;;;;0.38;0.38;;;;;;;7.77;87.64;99766.47;5034706;28;20128;-71
2023/11/16 04:31:40;;;;;;;0.20;0.20;;;;;;;7.69;87.21;99759.59;5031805;28;20101;-72
2023/11/16 04:34:11;;;;;;;0.82;0.82;;;;;;;7.60;87.25;99754.41;5033321;28;20033;-71
2023/11/16 04:36:42;;;;;;;0.20;0.20;;;;;;;7.67;87.07;99781.56;5033138;28;20141;-72
2023/11/16 04:39:11;;;;;;;0.50;0.50;;;;;;;7.62;88.18;99786.59;5033330;28;20049;-72
2023/11/16 04:41:45;;;;;;;0.20;0.20;;;;;;;7.59;88.16;99789.09;5033372;28;20053;-72
2023/11/16 04:44:14;;;;;;;0.40;0.40;;;;;;;7.55;87.69;99797.53;5033253;28;20123;-71
2023/11/16 04:46:46;;;;;;;0.35;0.35;;;;;;;7.51;87.89;99795.75;5048707;28;20132;-70
2023/11/16 04:49:15;;;;;;;0.30;0.30;;;;;;;7.48;87.47;99800.81;5033276;28;20495;-72
2023/11/16 04:51:45;;;;;;;1.17;1.08;;;;;;;7.49;87.96;99796.56;5032817;28;20119;-71
2023/11/16 04:54:14;;;;;;;0.30;0.30;;;;;;;7.46;87.24;99799.09;5032816;28;20132;-71
2023/11/16 04:56:43;;;;;;;0.40;0.40;;;;;;;7.43;87.58;99793.13;5032896;28;20037;-71
2023/11/16 04:59:12;;;;;;;0.30;0.30;;;;;;;7.39;87.09;99793.03;5032902;28;20038;-71
2023/11/16 05:01:40;;;;;;;0.60;0.60;;;;;;;7.33;88.03;99790.44;5032702;28;20058;-70
2023/11/16 05:04:09;;;;;;;0.60;0.60;;;;;;;7.31;88.27;99792.09;5033075;28;20034;-71
2023/11/16 05:06:41;;;;;;;0.60;0.60;;;;;;;7.29;87.71;99793.78;5036703;28;20491;-71
2023/11/16 05:09:11;;;;;;;0.95;0.65;;;;;;;7.26;88.30;99793.72;5036451;28;20060;-72
2023/11/16 05:11:40;;;;;;;0.95;0.95;;;;;;;7.17;87.31;99801.22;5036240;28;20057;-72
2023/11/16 05:14:09;;;;;;;3.40;1.67;;;;;;;7.07;87.64;99801.91;5036463;28;20418;-73
2023/11/16 05:16:38;;;;;;;0.63;0.63;;;;;;;7.02;88.10;99795.91;5036166;28;20045;-73
2023/11/16 05:19:10;;;;;;;0.25;0.25;;;;;;;6.96;88.03;99788.22;5036167;28;20080;-71
2023/11/16 05:21:39;;;;;;;0.80;0.50;;;;;;;6.86;87.18;99801.56;5036109;28;20057;-73
2023/11/16 05:24:09;;;;;;;0.75;0.75;;;;;;;6.84;87.13;99798.16;5051472;28;20088;-70
2023/11/16 05:26:40;;;;;;;0.30;0.30;;;;;;;6.85;87.64;99794.78;5036227;28;20403;-72
2023/11/16 05:29:09;;;;;;;0.20;0.20;;;;;;;6.82;87.76;99799.81;5036300;28;20065;-69
2023/11/16 05:31:38;;;;;;;0.43;0.43;;;;;;;6.74;87.60;99798.00;5035889;28;20052;-72
2023/11/16 05:34:08;;;;;;;0.30;0.30;;;;;;;6.67;88.08;99806.34;5035806;28;20041;-70
2023/11/16 05:36:36;;;;;;;0.30;0.30;;;;;;;6.63;88.12;99809.66;5035686;28;20041;-73
2023/11/16 05:39:05;;;;;;;0.30;0.30;;;;;;;6.58;87.88;99805.31;5036088;28;20496;-71
2023/11/16 05:41:34;;;;;;;0.57;0.57;;;;;;;6.51;88.45;99811.13;5035574;28;20044;-71
2023/11/16 05:44:04;;;;;;;0.30;0.30;;;;;;;6.29;88.60;99787.06;5035668;28;20049;-73
2023/11/16 05:46:33;;;;;;;0.45;0.45;;;;;;;6.47;88.49;99822.03;5035961;28;20141;-72
2023/11/16 05:49:02;;;;;;;0.40;0.40;;;;;;;6.50;89.38;99822.94;5035932;28;20037;-71
2023/11/16 05:51:34;;;;;;;0.35;0.35;;;;;;;6.59;89.61;99820.59;5035160;28;20341;-71
2023/11/16 05:54:03;;;;;;;0.95;0.95;;;;;;;6.52;88.88;99803.56;5035823;28;20487;-74
2023/11/16 05:56:31;;;;;;;1.07;0.97;;;;;;;6.62;89.53;99818.06;5035652;28;20111;-69
2023/11/16 05:59:00;;;;;;;0.50;0.50;;;;;;;6.67;89.74;99824.09;5035638;28;20042;-73
2023/11/16 06:01:30;;;;;;;0.30;0.30;;;;;;;6.72;89.34;99819.94;5050930;28;20049;-71
2023/11/16 06:03:59;;;;;;;0.50;0.50;;;;;;;6.76;89.55;99813.25;5035369;28;20037;-71
2023/11/16 06:06:28;;;;;;;0.30;0.30;;;;;;;6.81;89.66;99808.25;5035625;28;20049;-72
2023/11/16 06:08:57;;;;;;;0.70;0.70;;;;;;;6.92;89.54;99814.34;5035293;28;20116;-71
2023/11/16 06:11:26;;;;;;;0.60;0.60;;;;;;;6.97;89.85;99811.06;5035027;28;20275;-71
2023/11/16 06:13:56;;;;;;;0.57;0.57;;;;;;;6.99;90.21;99808.53;5035042;28;20038;-72
2023/11/16 06:16:25;;;;;;;0.60;0.60;;;;;;;6.87;89.51;99813.41;5035259;28;20060;-71
2023/11/16 06:18:57;;;;;;;0.30;0.30;;;;;;;6.90;90.26;99814.31;5035166;28;20124;-71
2023/11/16 06:21:26;;;;;;;0.30;0.30;;;;;;;6.95;90.38;99814.41;5034771;28;20056;-71
2023/11/16 06:23:54;;;;;;;0.30;0.30;;;;;;;6.91;90.02;99802.50;5035199;28;20041;-73
2023/11/16 06:26:23;;;;;;;0.70;0.70;;;;;;;6.88;89.66;99810.91;5034846;28;20042;-71
2023/11/16 06:28:52;;;;;;;0.53;0.53;;;;;;;6.98;89.65;99811.91;5034718;28;20049;-71
2023/11/16 06:31:20;;;;;;;0.30;0.30;;;;;;;6.97;90.19;99830.50;5035055;28;20045;-71
2023/11/16 06:33:49;;;;;;;1.13;1.03;;;;;;;6.95;89.13;99827.09;5034768;28;20038;-70
2023/11/16 06:36:22;;;;;;;0.68;0.68;;;;;;;6.99;89.29;99828.84;5050265;28;20446;-72
2023/11/16 06:38:51;;;;;;;0.65;0.65;;;;;;;6.91;89.46;99820.25;5034560;28;20113;-72
2023/11/16 06:41:20;;;;;;;0.40;0.40;;;;;;;6.99;89.89;99828.84;5034473;28;20046;-72
2023/11/16 06:43:49;;;;;;;2.47;1.80;;;;;;;6.98;90.07;99830.50;5034494;28;20104;-71
2023/11/16 06:46:17;;;;;;;0.57;0.45;;;;;;;6.97;89.34;99830.50;5034738;28;20514;-70
2023/11/16 06:48:46;;;;;;;0.33;0.33;;;;;;;7.07;90.35;99825.59;5034433;28;20042;-72
2023/11/16 06:51:17;;;;;;;0.47;0.47;;;;;;;7.24;90.09;99825.84;5034187;28;20484;-72
2023/11/16 06:53:47;;;;;;;5.25;0.85;;;;;;;7.41;90.12;99830.31;5034734;28;20060;-70
2023/11/16 06:56:17;;;;;;;0.30;0.30;;;;;;;7.51;90.14;99836.38;5034735;28;20427;-71
2023/11/16 06:58:47;;;;;;;0.57;0.57;;;;;;;7.62;90.16;99844.16;5033070;28;20103;-71
2023/11/16 07:01:16;;;;;;;0.35;0.35;;;;;;;7.81;90.08;99846.97;5033945;28;20041;-71
2023/11/16 07:03:46;;;;;;;0.30;0.30;;;;;;;7.95;89.91;99845.44;5034117;28;20041;-70
2023/11/16 07:06:15;;;;;;;0.68;0.63;;;;;;;7.91;89.41;99842.84;5034134;28;20051;-71
2023/11/16 07:08:46;;;;;;;2.60;1.60;;;;;;;7.83;90.10;99835.13;5032941;28;20411;-72
2023/11/16 07:11:20;;;;;;;1.73;1.45;;;;;;;7.77;89.51;99835.06;5034079;28;20128;-71
2023/11/16 07:13:49;;;;;;;0.52;0.52;;;;;;;7.77;90.15;99840.16;5034002;28;20076;-69
2023/11/16 07:16:18;;;;;;;2.08;1.35;;;;;;;7.73;89.62;99833.31;5039119;28;20411;-71
2023/11/16 07:18:48;;;;;;;0.43;0.43;;;;;;;7.71;89.75;99849.34;5043968;28;20044;-71
2023/11/16 07:21:16;;;;;;;0.40;0.40;;;;;;;7.58;90.20;99828.03;5042773;28;20491;-72
2023/11/16 07:23:45;;;;;;;2.00;1.23;;;;;;;7.78;89.69;99857.09;5037504;28;20095;-71
2023/11/16 07:26:14;;;;;;;1.17;0.93;;;;;;;7.82;90.27;99863.06;5045458;28;20529;-71
2023/11/16 07:28:45;;;;;;;0.30;0.30;;;;;;;7.83;89.95;99860.53;5033010;28;20403;-72
2023/11/16 07:31:19;;;;;;;0.40;0.40;;;;;;;7.79;90.88;99848.66;5039935;28;20772;-71
2023/11/16 07:33:51;;;;;;;0.38;0.38;;;;;;;7.84;90.77;99852.09;5042640;28;20037;-72
2023/11/16 07:36:25;;;;;;;0.45;0.45;;;;;;;7.87;90.49;99847.03;5038284;28;20045;-70
2023/11/16 07:38:55;;;;;;;0.43;0.43;;;;;;;7.92;90.61;99859.78;5036038;28;20076;-71
2023/11/16 07:41:24;;;;;;;0.30;0.30;;;;;;;7.94;90.66;99858.97;5033354;28;20053;-71
2023/11/16 07:43:54;;;;;;;0.40;0.40;;;;;;;7.97;90.61;99859.03;5032547;28;20043;-73
2023/11/16 07:46:23;;;;;;;0.38;0.38;;;;;;;8.01;90.56;99854.84;5033642;28;20128;-72
2023/11/16 07:48:51;;;;;;;0.73;0.73;;;;;;;8.00;90.57;99828.56;5033464;28;20426;-75
2023/11/16 07:51:20;;;;;;;0.30;0.30;;;;;;;8.17;90.75;99835.53;5033205;28;20068;-73
2023/11/16 07:53:53;;;;;;;0.30;0.30;;;;;;;8.24;90.04;99842.38;5033456;28;20129;-73
2023/11/16 07:56:22;;;;;;;0.70;0.55;;;;;;;8.50;90.53;99839.31;5033300;28;20073;-72
2023/11/16 07:58:52;;;;;;;0.40;0.40;;;;;;;8.85;90.70;99848.97;5033390;28;20099;-72
2023/11/16 08:01:29;;;;;;;1.23;1.13;;;;;;;9.09;90.75;99839.88;5033149;28;20053;-74
2023/11/16 08:03:57;;;;;;;1.45;0.85;;;;;;;9.32;90.03;99833.22;5033187;28;20052;-72
2023/11/16 08:06:28;;;;;;;0.47;0.47;;;;;;;9.54;89.55;99835.91;5033403;28;20399;-72
2023/11/16 08:08:59;;;;;;;0.22;0.22;;;;;;;9.60;89.36;99836.78;5033241;28;20052;-72
2023/11/16 08:11:27;;;;;;;0.50;0.50;;;;;;;9.50;88.59;99826.56;5033509;28;20120;-73
2023/11/16 08:13:57;;;;;;;0.28;0.28;;;;;;;9.62;88.59;99836.81;5033462;28;20403;-71
2023/11/16 08:16:27;;;;;;;0.75;0.68;;;;;;;9.37;88.52;99780.63;5033374;28;20404;-72
2023/11/16 08:19:00;;;;;;;0.43;0.43;;;;;;;9.80;87.89;99831.78;5032248;28;20391;-72
2023/11/16 08:21:30;;;;;;;0.25;0.25;;;;;;;9.94;87.58;99830.16;5033246;28;20511;-70
2023/11/16 08:23:59;;;;;;;0.38;0.38;;;;;;;9.97;87.28;99842.94;5033344;28;20407;-73
2023/11/16 08:26:27;;;;;;;0.75;0.70;;;;;;;9.97;86.54;99830.19;5033062;28;20148;-70
2023/11/16 08:28:56;;;;;;;0.40;0.40;;;;;;;9.94;86.26;99823.38;5033081;28;20407;-72
2023/11/16 08:31:26;;;;;;;0.30;0.30;;;;;;;10.03;86.18;99827.63;5032984;28;20048;-72
2023/11/16 08:33:57;;;;;;;0.20;0.20;;;;;;;10.11;85.87;99828.53;5033317;28;20068;-72
2023/11/16 08:36:26;;;;;;;2.33;1.38;;;;;;;10.18;85.83;99829.41;5032862;28;20115;-72
2023/11/16 08:38:55;;;;;;;0.30;0.30;;;;;;;10.23;85.35;99820.94;5034740;28;20136;-72
2023/11/16 08:41:24;;;;;;;0.40;0.40;;;;;;;10.36;85.11;99825.25;5036636;28;20050;-71
2023/11/16 08:43:53;;;;;;;0.67;0.67;;;;;;;10.39;84.42;99827.78;5036802;28;20525;-70
2023/11/16 08:46:24;;;;;;;0.47;0.47;;;;;;;10.37;84.22;99821.81;5036801;28;20045;-70
2023/11/16 08:48:54;;;;;;;0.35;0.35;;;;;;;10.35;83.95;99833.75;5037027;28;20270;-70
2023/11/16 08:51:24;;;;;;;0.40;0.40;;;;;;;10.43;83.66;99821.84;5036453;28;20124;-72
2023/11/16 08:53:56;;;;;;;0.70;0.70;;;;;;;10.43;83.32;99826.97;5036708;28;20042;-70
2023/11/16 08:56:27;;;;;;;0.40;0.40;;;;;;;10.40;83.19;99821.84;5036341;28;20045;-70
2023/11/16 08:59:11;;;;;;;1.95;1.05;;;;;;;10.34;82.94;99837.13;5036504;28;20120;-73
2023/11/16 09:01:40;;;;;;;0.40;0.40;;;;;;;10.29;82.78;99833.72;5036155;28;20495;-72
2023/11/16 09:04:12;;;;;;;0.20;0.20;;;;;;;10.30;82.32;99826.91;5036669;28;20049;-71
2023/11/16 09:06:44;;;;;;;0.50;0.50;;;;;;;10.23;82.71;99828.59;5036239;28;20045;-71
2023/11/16 09:09:45;;;;;;;0.30;0.30;;;;;;;10.16;82.44;99831.97;5036690;28;20053;-70
2023/11/16 09:12:16;;;;;;;0.40;0.40;;;;;;;10.08;82.49;99834.47;5035722;28;20103;-69
2023/11/16 09:14:45;;;;;;;0.45;0.45;;;;;;;10.09;82.67;99835.31;5035717;28;20052;-68
2023/11/16 09:17:18;;;;;;;0.40;0.40;;;;;;;10.02;82.77;99833.59;5036026;28;20119;-72
2023/11/16 09:19:52;;;;;;;0.40;0.40;;;;;;;9.93;82.29;99824.19;5036065;28;20503;-72
2023/11/16 09:22:23;;;;;;;0.30;0.30;;;;;;;10.00;82.82;99835.28;5036079;28;20128;-71
2023/11/16 09:24:55;;;;;;;0.35;0.35;;;;;;;10.02;83.00;99834.47;5036023;28;20048;-71
2023/11/16 09:27:23;;;;;;;0.30;0.30;;;;;;;10.08;82.98;99833.59;5036239;28;20045;-71
2023/11/16 09:29:53;;;;;;;0.30;0.30;;;;;;;10.06;83.17;99814.91;5035809;28;20091;-72
2023/11/16 09:32:22;;;;;;;0.47;0.47;;;;;;;10.09;82.88;99817.47;5035860;28;20464;-71
2023/11/16 09:34:53;;;;;;;0.25;0.25;;;;;;;10.12;82.73;99814.13;5035879;28;20045;-70
2023/11/16 09:37:39;;;;;;;1.40;1.30;;;;;;;10.08;82.33;99808.97;5035711;28;20053;-70
2023/11/16 09:40:12;;;;;;;0.40;0.40;;;;;;;10.18;83.01;99797.13;5035741;28;20091;-71
2023/11/16 09:42:44;;;;;;;0.30;0.30;;;;;;;10.26;82.77;99798.00;5035611;28;20048;-71
2023/11/16 09:45:15;;;;;;;1.27;0.65;;;;;;;10.40;82.62;99793.78;5035939;28;20518;-70
2023/11/16 09:47:52;;;;;;;0.77;0.70;;;;;;;10.45;82.45;99779.34;5035572;28;20052;-69
2023/11/16 09:50:26;;;;;;;0.40;0.40;;;;;;;10.43;81.34;99786.13;5034978;28;20100;-72
2023/11/16 09:53:00;;;;;;;0.45;0.45;;;;;;;10.56;81.34;99777.63;5035284;28;20056;-70
2023/11/16 09:55:31;;;;;;;1.08;0.60;;;;;;;10.72;81.23;99774.22;5035595;28;20059;-71
2023/11/16 09:58:04;;;;;;;0.40;0.40;;;;;;;10.85;80.79;99775.09;5035428;28;20127;-71
2023/11/16 10:00:34;;;;;;;0.47;0.47;;;;;;;11.15;79.94;99769.09;5035407;28;20049;-71
2023/11/16 10:03:05;;;;;;;0.40;0.40;;;;;;;11.45;79.18;99758.81;5047215;28;20045;-70
2023/11/16 10:05:36;;;;;;;0.85;0.60;;;;;;;11.57;78.10;99725.53;5035352;28;20041;-71
2023/11/16 10:08:08;;;;;;;1.00;0.77;;;;;;;11.85;76.28;99750.16;5034984;28;20045;-70
2023/11/16 10:10:37;;;;;;;0.20;0.20;;;;;;;11.96;75.35;99750.97;5035240;28;20046;-71
2023/11/16 10:13:08;;;;;;;0.30;0.30;;;;;;;12.00;74.62;99739.84;5035440;28;20095;-71
2023/11/16 10:15:37;;;;;;;0.45;0.45;;;;;;;12.26;74.59;99733.72;5035357;28;20291;-70
2023/11/16 10:18:09;;;;;;;0.60;0.60;;;;;;;12.34;74.41;99709.78;5034996;28;20056;-71
2023/11/16 10:20:42;;;;;;;0.22;0.22;;;;;;;12.63;74.14;99723.19;5035422;28;20069;-70
2023/11/16 10:23:13;;;;;;;0.40;0.40;;;;;;;12.63;73.41;99722.34;5034916;28;20069;-71
2023/11/16 10:25:42;;;;;;;0.35;0.35;;;;;;;12.78;73.32;99717.94;5035149;28;20060;-71
2023/11/16 10:28:16;;;;;;;0.45;0.45;;;;;;;12.88;73.67;99703.34;5034807;28;20042;-72
2023/11/16 10:30:46;;;;;;;1.08;0.68;;;;;;;13.08;72.93;99711.69;5035210;28;20046;-72
2023/11/16 10:33:20;;;;;;;4.63;0.82;;;;;;;12.82;71.73;99713.63;5034729;28;20042;-70
2023/11/16 10:35:51;;;;;;;0.35;0.35;;;;;;;12.88;71.71;99713.59;5035008;28;20399;-71
2023/11/16 10:38:22;;;;;;;1.65;0.88;;;;;;;13.00;71.40;99708.34;5034818;28;20495;-70
2023/11/16 10:40:52;;;;;;;0.40;0.40;;;;;;;12.83;70.42;99694.84;5034622;28;20049;-70
2023/11/16 10:43:25;;;;;;;0.30;0.30;;;;;;;12.61;71.04;99685.66;5034754;28;20045;-70
2023/11/16 10:46:00;;;;;;;0.93;0.85;;;;;;;12.68;71.00;99689.88;5034521;28;20447;-70
2023/11/16 10:48:30;;;;;;;0.20;0.20;;;;;;;12.64;71.26;99677.97;5034505;28;20446;-71
2023/11/16 10:51:02;;;;;;;0.30;0.30;;;;;;;12.41;70.70;99677.28;5034271;28;20050;-70
2023/11/16 10:53:37;;;;;;;0.40;0.40;;;;;;;12.36;71.05;99671.34;5034030;28;20088;-69
2023/11/16 10:56:09;;;;;;;0.30;0.30;;;;;;;12.55;70.97;99663.50;5034284;28;20046;-70
2023/11/16 10:58:42;;;;;;;0.45;0.45;;;;;;;12.68;70.99;99671.94;5034282;28;20049;-70
2023/11/16 11:01:49;;;;;;;0.63;0.63;;;;;;;12.67;71.17;99658.28;5034525;28;20092;-71
2023/11/16 11:04:19;;;;;;;0.50;0.50;;;;;;;12.78;71.13;99653.06;5034200;28;20052;-70
2023/11/16 11:06:50;;;;;;;0.30;0.30;;;;;;;12.78;71.29;99645.38;5034193;28;20049;-70
2023/11/16 11:09:22;;;;;;;0.20;0.20;;;;;;;12.62;71.50;99638.72;5033945;28;20042;-70
2023/11/16 11:11:53;;;;;;;0.40;0.40;;;;;;;12.62;71.25;99654.09;5034637;28;20064;-70
2023/11/16 11:14:26;;;;;;;0.50;0.50;;;;;;;12.58;71.31;99653.25;5034035;28;20478;-71
2023/11/16 11:16:56;;;;;;;0.40;0.40;;;;;;;12.48;71.52;99654.19;5033949;28;20099;-71
2023/11/16 11:19:29;;;;;;;0.50;0.50;;;;;;;12.32;71.85;99638.97;5034081;28;20132;-70
2023/11/16 11:22:01;;;;;;;0.57;0.57;;;;;;;12.25;72.00;99648.44;5034005;28;20144;-71
2023/11/16 11:24:31;;;;;;;1.40;0.60;;;;;;;12.19;72.58;99647.63;5032916;28;20075;-70
2023/11/16 11:27:01;;;;;;;0.30;0.30;;;;;;;12.17;72.72;99649.34;5033740;28;20056;-71
2023/11/16 11:29:30;;;;;;;0.60;0.60;;;;;;;12.20;73.14;99650.16;5033913;28;20038;-71
2023/11/16 11:32:07;;;;;;;0.40;0.40;;;;;;;12.19;73.56;99647.63;5033566;28;20037;-71
2023/11/16 11:34:36;;;;;;;0.40;0.40;;;;;;;12.23;73.41;99623.72;5033933;28;20037;-70
2023/11/16 11:37:10;;;;;;;0.85;0.85;;;;;;;12.44;73.42;99644.84;5033842;28;20060;-69
2023/11/16 11:39:49;;;;;;;0.68;0.65;;;;;;;12.62;73.08;99631.03;5033473;28;20075;-69
2023/11/16 11:42:19;;;;;;;0.50;0.50;;;;;;;12.85;72.86;99626.53;5033833;28;20049;-69
2023/11/16 11:44:52;;;;;;;0.77;0.77;;;;;;;12.86;71.93;99610.28;5033671;28;20048;-70
2023/11/16 11:47:24;;;;;;;0.40;0.40;;;;;;;13.08;71.74;99629.69;5033816;28;20079;-70
2023/11/16 11:49:53;;;;;;;0.50;0.50;;;;;;;13.20;71.74;99624.44;5032497;28;20518;-69
2023/11/16 11:52:24;;;;;;;0.60;0.60;;;;;;;13.13;71.22;99630.50;5033184;28;20067;-70
2023/11/16 11:54:56;;;;;;;0.65;0.65;;;;;;;12.96;70.80;99624.69;5033458;28;20049;-69
2023/11/16 11:57:26;;;;;;;1.85;0.95;;;;;;;12.85;71.45;99623.97;5033552;28;20140;-69